Terminal Aerodrome Forecast
Issued by NWS Denver/Boulder, CO

Home | Current Version | Previous Version | Text Only | Print | Product List | Glossary On
Versions: 1 2 3 4 5 6 7 8 9 10 11 12 13 14 15 16 17 18 19 20 21 22 23 24 25 26 27 28 29 30 31 32 33 34 35 36
000
FTUS45 KBOU 291120
TAFDEN
TAF
KDEN 291120Z 2912/3018 08006KT P6SM SCT030 SCT070
      TEMPO 2912/2914 BKN030
     FM291700 05008KT P6SM SCT040 SCT080
     FM292100 14011KT P6SM SCT060 BKN080 PROB30 2922/3004 VRB15G25KT
      -TSRA BKN060CB
     FM300500 19011KT P6SM SCT060 BKN100
     FM301500 31006KT P6SM FEW060 SCT100=

USA.gov is the U.S. government's official web portal to all federal, state and local government web resources and services.